sensor_id;sensor_type;location;lat;lon;timestamp;P1;durP1;ratioP1;P2;durP2;ratioP2
7517;SDS011;3800;48.922;9.444;2023-03-14T00:01:20;1.67;;;1.00;;
7517;SDS011;3800;48.922;9.444;2023-03-14T00:03:47;1.60;;;1.00;;
7517;SDS011;3800;48.922;9.444;2023-03-14T00:06:15;1.83;;;1.10;;
7517;SDS011;3800;48.922;9.444;2023-03-14T00:08:43;0.90;;;0.90;;
7517;SDS011;3800;48.922;9.444;2023-03-14T00:11:11;1.20;;;1.00;;
7517;SDS011;3800;48.922;9.444;2023-03-14T00:13:38;0.80;;;0.80;;
7517;SDS011;3800;48.922;9.444;2023-03-14T00:16:07;1.17;;;1.03;;
7517;SDS011;3800;48.922;9.444;2023-03-14T00:18:35;3.40;;;1.07;;
7517;SDS011;3800;48.922;9.444;2023-03-14T00:21:03;1.03;;;0.97;;
7517;SDS011;3800;48.922;9.444;2023-03-14T00:23:31;1.00;;;1.00;;
7517;SDS011;3800;48.922;9.444;2023-03-14T00:25:59;2.07;;;1.43;;
7517;SDS011;3800;48.922;9.444;2023-03-14T00:28:26;1.47;;;1.17;;
7517;SDS011;3800;48.922;9.444;2023-03-14T00:30:53;1.20;;;1.10;;
7517;SDS011;3800;48.922;9.444;2023-03-14T00:33:22;1.20;;;1.10;;
7517;SDS011;3800;48.922;9.444;2023-03-14T00:35:53;1.37;;;1.10;;
7517;SDS011;3800;48.922;9.444;2023-03-14T00:38:23;1.33;;;1.13;;
7517;SDS011;3800;48.922;9.444;2023-03-14T00:40:51;1.10;;;1.00;;
7517;SDS011;3800;48.922;9.444;2023-03-14T00:43:18;1.10;;;1.00;;
7517;SDS011;3800;48.922;9.444;2023-03-14T00:45:46;1.70;;;1.20;;
7517;SDS011;3800;48.922;9.444;2023-03-14T00:48:14;1.60;;;1.23;;
7517;SDS011;3800;48.922;9.444;2023-03-14T00:50:42;1.53;;;1.20;;
7517;SDS011;3800;48.922;9.444;2023-03-14T00:53:10;1.10;;;1.00;;
7517;SDS011;3800;48.922;9.444;2023-03-14T00:55:39;1.20;;;1.10;;
7517;SDS011;3800;48.922;9.444;2023-03-14T00:58:06;1.70;;;1.20;;
7517;SDS011;3800;48.922;9.444;2023-03-14T01:00:34;1.20;;;1.00;;
7517;SDS011;3800;48.922;9.444;2023-03-14T01:03:02;1.20;;;1.10;;
7517;SDS011;3800;48.922;9.444;2023-03-14T01:05:29;1.30;;;1.20;;
7517;SDS011;3800;48.922;9.444;2023-03-14T01:07:57;1.20;;;1.10;;
7517;SDS011;3800;48.922;9.444;2023-03-14T01:10:24;5.13;;;0.93;;
7517;SDS011;3800;48.922;9.444;2023-03-14T01:12:52;1.10;;;0.80;;
7517;SDS011;3800;48.922;9.444;2023-03-14T01:15:20;1.43;;;1.00;;
7517;SDS011;3800;48.922;9.444;2023-03-14T01:17:47;0.93;;;0.90;;
7517;SDS011;3800;48.922;9.444;2023-03-14T01:20:16;1.03;;;0.97;;
7517;SDS011;3800;48.922;9.444;2023-03-14T01:22:44;1.17;;;1.00;;
7517;SDS011;3800;48.922;9.444;2023-03-14T01:25:13;1.10;;;1.00;;
7517;SDS011;3800;48.922;9.444;2023-03-14T01:27:39;1.07;;;0.90;;
7517;SDS011;3800;48.922;9.444;2023-03-14T01:30:07;1.53;;;0.90;;
7517;SDS011;3800;48.922;9.444;2023-03-14T01:32:35;0.80;;;0.80;;
7517;SDS011;3800;48.922;9.444;2023-03-14T01:35:03;1.20;;;1.10;;
7517;SDS011;3800;48.922;9.444;2023-03-14T01:37:32;1.10;;;1.00;;
7517;SDS011;3800;48.922;9.444;2023-03-14T01:40:00;1.87;;;1.00;;
7517;SDS011;3800;48.922;9.444;2023-03-14T01:42:29;0.90;;;0.90;;
7517;SDS011;3800;48.922;9.444;2023-03-14T01:44:57;1.47;;;1.13;;
7517;SDS011;3800;48.922;9.444;2023-03-14T01:47:26;1.20;;;1.10;;
7517;SDS011;3800;48.922;9.444;2023-03-14T01:49:58;1.00;;;0.90;;
7517;SDS011;3800;48.922;9.444;2023-03-14T01:52:25;1.10;;;1.00;;
7517;SDS011;3800;48.922;9.444;2023-03-14T01:54:54;1.47;;;0.90;;
7517;SDS011;3800;48.922;9.444;2023-03-14T01:57:25;0.83;;;0.83;;
7517;SDS011;3800;48.922;9.444;2023-03-14T01:59:54;2.17;;;0.90;;
7517;SDS011;3800;48.922;9.444;2023-03-14T02:02:21;1.03;;;0.90;;
7517;SDS011;3800;48.922;9.444;2023-03-14T02:04:49;1.13;;;0.93;;
7517;SDS011;3800;48.922;9.444;2023-03-14T02:07:20;1.53;;;0.97;;
7517;SDS011;3800;48.922;9.444;2023-03-14T02:09:47;1.63;;;1.20;;
7517;SDS011;3800;48.922;9.444;2023-03-14T02:12:15;1.63;;;1.00;;
7517;SDS011;3800;48.922;9.444;2023-03-14T02:14:42;0.97;;;0.90;;
7517;SDS011;3800;48.922;9.444;2023-03-14T02:17:10;2.40;;;0.90;;
7517;SDS011;3800;48.922;9.444;2023-03-14T02:19:44;1.20;;;1.00;;
7517;SDS011;3800;48.922;9.444;2023-03-14T02:22:24;1.10;;;1.00;;
7517;SDS011;3800;48.922;9.444;2023-03-14T02:25:11;1.33;;;1.00;;
7517;SDS011;3800;48.922;9.444;2023-03-14T02:27:35;1.00;;;0.90;;
7517;SDS011;3800;48.922;9.444;2023-03-14T02:30:07;2.20;;;1.07;;
7517;SDS011;3800;48.922;9.444;2023-03-14T02:32:35;1.80;;;1.10;;
7517;SDS011;3800;48.922;9.444;2023-03-14T02:35:06;1.00;;;0.90;;
7517;SDS011;3800;48.922;9.444;2023-03-14T02:37:36;0.90;;;0.90;;
7517;SDS011;3800;48.922;9.444;2023-03-14T02:40:03;2.50;;;1.17;;
7517;SDS011;3800;48.922;9.444;2023-03-14T02:42:31;1.60;;;0.90;;
7517;SDS011;3800;48.922;9.444;2023-03-14T02:45:01;2.57;;;1.10;;
7517;SDS011;3800;48.922;9.444;2023-03-14T02:47:28;1.23;;;1.00;;
7517;SDS011;3800;48.922;9.444;2023-03-14T02:49:58;1.30;;;1.00;;
7517;SDS011;3800;48.922;9.444;2023-03-14T02:52:25;1.00;;;0.90;;
7517;SDS011;3800;48.922;9.444;2023-03-14T02:54:53;0.80;;;0.80;;
7517;SDS011;3800;48.922;9.444;2023-03-14T02:57:21;1.17;;;1.00;;
7517;SDS011;3800;48.922;9.444;2023-03-14T02:59:49;0.97;;;0.97;;
7517;SDS011;3800;48.922;9.444;2023-03-14T03:02:16;0.90;;;0.90;;
7517;SDS011;3800;48.922;9.444;2023-03-14T03:04:44;1.63;;;1.20;;
7517;SDS011;3800;48.922;9.444;2023-03-14T03:07:12;2.13;;;0.90;;
7517;SDS011;3800;48.922;9.444;2023-03-14T03:09:40;1.90;;;1.10;;
7517;SDS011;3800;48.922;9.444;2023-03-14T03:12:07;1.10;;;1.00;;
7517;SDS011;3800;48.922;9.444;2023-03-14T03:14:35;1.20;;;1.07;;
7517;SDS011;3800;48.922;9.444;2023-03-14T03:17:04;2.10;;;1.30;;
7517;SDS011;3800;48.922;9.444;2023-03-14T03:19:32;1.43;;;1.20;;
7517;SDS011;3800;48.922;9.444;2023-03-14T03:22:00;2.50;;;1.13;;
7517;SDS011;3800;48.922;9.444;2023-03-14T03:24:28;1.73;;;1.00;;
7517;SDS011;3800;48.922;9.444;2023-03-14T03:26:57;1.60;;;1.00;;
7517;SDS011;3800;48.922;9.444;2023-03-14T03:29:25;1.30;;;1.00;;
7517;SDS011;3800;48.922;9.444;2023-03-14T03:31:52;2.27;;;1.13;;
7517;SDS011;3800;48.922;9.444;2023-03-14T03:34:20;1.20;;;1.10;;
7517;SDS011;3800;48.922;9.444;2023-03-14T03:36:48;1.27;;;1.17;;
7517;SDS011;3800;48.922;9.444;2023-03-14T03:39:16;1.83;;;0.90;;
7517;SDS011;3800;48.922;9.444;2023-03-14T03:41:44;1.93;;;1.20;;
7517;SDS011;3800;48.922;9.444;2023-03-14T03:44:11;1.10;;;0.90;;
7517;SDS011;3800;48.922;9.444;2023-03-14T03:46:40;3.23;;;1.10;;
7517;SDS011;3800;48.922;9.444;2023-03-14T03:49:08;1.33;;;0.97;;
7517;SDS011;3800;48.922;9.444;2023-03-14T03:51:35;3.23;;;1.17;;
7517;SDS011;3800;48.922;9.444;2023-03-14T03:54:03;1.10;;;1.00;;
7517;SDS011;3800;48.922;9.444;2023-03-14T03:56:31;2.73;;;1.17;;
7517;SDS011;3800;48.922;9.444;2023-03-14T03:59:01;1.87;;;1.10;;
7517;SDS011;3800;48.922;9.444;2023-03-14T04:01:28;3.07;;;1.10;;
7517;SDS011;3800;48.922;9.444;2023-03-14T04:03:57;3.43;;;1.40;;
7517;SDS011;3800;48.922;9.444;2023-03-14T04:06:25;2.97;;;1.00;;
7517;SDS011;3800;48.922;9.444;2023-03-14T04:08:53;1.53;;;1.13;;
7517;SDS011;3800;48.922;9.444;2023-03-14T04:11:21;1.97;;;1.10;;
7517;SDS011;3800;48.922;9.444;2023-03-14T04:13:50;1.87;;;1.03;;
7517;SDS011;3800;48.922;9.444;2023-03-14T04:16:18;2.77;;;1.10;;
7517;SDS011;3800;48.922;9.444;2023-03-14T04:18:46;2.03;;;1.27;;
7517;SDS011;3800;48.922;9.444;2023-03-14T04:21:13;2.10;;;1.13;;
7517;SDS011;3800;48.922;9.444;2023-03-14T04:23:41;2.60;;;1.30;;
7517;SDS011;3800;48.922;9.444;2023-03-14T04:26:08;2.83;;;1.20;;
7517;SDS011;3800;48.922;9.444;2023-03-14T04:28:37;2.87;;;1.60;;
7517;SDS011;3800;48.922;9.444;2023-03-14T04:31:07;4.03;;;1.40;;
7517;SDS011;3800;48.922;9.444;2023-03-14T04:33:36;4.67;;;1.53;;
7517;SDS011;3800;48.922;9.444;2023-03-14T04:36:05;3.83;;;1.50;;
7517;SDS011;3800;48.922;9.444;2023-03-14T04:38:32;1.87;;;1.20;;
7517;SDS011;3800;48.922;9.444;2023-03-14T04:41:00;2.87;;;1.23;;
7517;SDS011;3800;48.922;9.444;2023-03-14T04:43:28;1.67;;;1.47;;
7517;SDS011;3800;48.922;9.444;2023-03-14T04:45:57;3.47;;;1.50;;
7517;SDS011;3800;48.922;9.444;2023-03-14T04:48:25;3.53;;;1.60;;
7517;SDS011;3800;48.922;9.444;2023-03-14T04:50:52;2.87;;;1.40;;
7517;SDS011;3800;48.922;9.444;2023-03-14T04:53:20;1.93;;;1.20;;
7517;SDS011;3800;48.922;9.444;2023-03-14T04:55:49;3.03;;;1.47;;
7517;SDS011;3800;48.922;9.444;2023-03-14T04:58:18;3.90;;;1.70;;
7517;SDS011;3800;48.922;9.444;2023-03-14T05:00:45;3.07;;;1.60;;
7517;SDS011;3800;48.922;9.444;2023-03-14T05:03:14;2.23;;;1.50;;
7517;SDS011;3800;48.922;9.444;2023-03-14T05:05:42;2.27;;;1.20;;
7517;SDS011;3800;48.922;9.444;2023-03-14T05:08:09;5.37;;;1.43;;
7517;SDS011;3800;48.922;9.444;2023-03-14T05:10:37;3.93;;;1.40;;
7517;SDS011;3800;48.922;9.444;2023-03-14T05:13:05;2.03;;;1.30;;
7517;SDS011;3800;48.922;9.444;2023-03-14T05:15:33;4.23;;;1.67;;
7517;SDS011;3800;48.922;9.444;2023-03-14T05:18:00;4.17;;;1.30;;
7517;SDS011;3800;48.922;9.444;2023-03-14T05:20:28;1.57;;;1.10;;
7517;SDS011;3800;48.922;9.444;2023-03-14T05:22:56;1.73;;;1.10;;
7517;SDS011;3800;48.922;9.444;2023-03-14T05:25:23;2.47;;;1.30;;
7517;SDS011;3800;48.922;9.444;2023-03-14T05:27:53;3.50;;;1.33;;
7517;SDS011;3800;48.922;9.444;2023-03-14T05:30:19;2.80;;;1.17;;
7517;SDS011;3800;48.922;9.444;2023-03-14T05:32:46;2.20;;;1.20;;
7517;SDS011;3800;48.922;9.444;2023-03-14T05:35:15;1.87;;;1.20;;
7517;SDS011;3800;48.922;9.444;2023-03-14T05:37:42;2.63;;;1.23;;
7517;SDS011;3800;48.922;9.444;2023-03-14T05:40:10;2.27;;;1.20;;
7517;SDS011;3800;48.922;9.444;2023-03-14T05:42:38;3.50;;;1.20;;
7517;SDS011;3800;48.922;9.444;2023-03-14T05:45:06;2.73;;;1.20;;
7517;SDS011;3800;48.922;9.444;2023-03-14T05:47:34;3.03;;;1.20;;
7517;SDS011;3800;48.922;9.444;2023-03-14T05:50:02;1.73;;;1.10;;
7517;SDS011;3800;48.922;9.444;2023-03-14T05:52:30;1.83;;;1.40;;
7517;SDS011;3800;48.922;9.444;2023-03-14T05:54:58;3.07;;;1.40;;
7517;SDS011;3800;48.922;9.444;2023-03-14T05:57:26;3.60;;;1.30;;
7517;SDS011;3800;48.922;9.444;2023-03-14T05:59:54;3.07;;;1.50;;
7517;SDS011;3800;48.922;9.444;2023-03-14T06:02:22;5.57;;;1.47;;
7517;SDS011;3800;48.922;9.444;2023-03-14T06:04:49;5.03;;;1.40;;
7517;SDS011;3800;48.922;9.444;2023-03-14T06:07:17;4.33;;;1.30;;
7517;SDS011;3800;48.922;9.444;2023-03-14T06:09:45;2.43;;;1.20;;
7517;SDS011;3800;48.922;9.444;2023-03-14T06:12:13;2.53;;;1.40;;
7517;SDS011;3800;48.922;9.444;2023-03-14T06:14:40;3.23;;;1.40;;
7517;SDS011;3800;48.922;9.444;2023-03-14T06:17:08;5.73;;;1.90;;
7517;SDS011;3800;48.922;9.444;2023-03-14T06:19:36;3.97;;;1.27;;
7517;SDS011;3800;48.922;9.444;2023-03-14T06:22:03;2.97;;;1.30;;
7517;SDS011;3800;48.922;9.444;2023-03-14T06:24:32;2.73;;;1.40;;
7517;SDS011;3800;48.922;9.444;2023-03-14T06:27:00;3.53;;;1.23;;
7517;SDS011;3800;48.922;9.444;2023-03-14T06:29:27;4.40;;;1.40;;
7517;SDS011;3800;48.922;9.444;2023-03-14T06:31:56;2.87;;;1.30;;
7517;SDS011;3800;48.922;9.444;2023-03-14T06:34:23;3.57;;;1.30;;
7517;SDS011;3800;48.922;9.444;2023-03-14T06:36:51;3.23;;;1.23;;
7517;SDS011;3800;48.922;9.444;2023-03-14T06:39:19;2.73;;;1.10;;
7517;SDS011;3800;48.922;9.444;2023-03-14T06:41:46;3.50;;;1.33;;
7517;SDS011;3800;48.922;9.444;2023-03-14T06:44:14;5.03;;;1.40;;
7517;SDS011;3800;48.922;9.444;2023-03-14T06:46:42;2.00;;;1.37;;
7517;SDS011;3800;48.922;9.444;2023-03-14T06:49:10;2.77;;;1.23;;
7517;SDS011;3800;48.922;9.444;2023-03-14T06:51:37;1.93;;;1.17;;
7517;SDS011;3800;48.922;9.444;2023-03-14T06:54:06;2.60;;;1.40;;
7517;SDS011;3800;48.922;9.444;2023-03-14T06:56:33;3.83;;;1.33;;
7517;SDS011;3800;48.922;9.444;2023-03-14T06:59:03;6.07;;;1.30;;
7517;SDS011;3800;48.922;9.444;2023-03-14T07:01:31;2.67;;;1.50;;
7517;SDS011;3800;48.922;9.444;2023-03-14T07:03:59;3.57;;;1.40;;
7517;SDS011;3800;48.922;9.444;2023-03-14T07:06:27;3.50;;;1.30;;
7517;SDS011;3800;48.922;9.444;2023-03-14T07:08:55;2.13;;;1.00;;
7517;SDS011;3800;48.922;9.444;2023-03-14T07:11:24;2.67;;;1.30;;
7517;SDS011;3800;48.922;9.444;2023-03-14T07:13:51;3.93;;;1.10;;
7517;SDS011;3800;48.922;9.444;2023-03-14T07:16:20;3.60;;;1.30;;
7517;SDS011;3800;48.922;9.444;2023-03-14T07:18:47;3.03;;;1.50;;
7517;SDS011;3800;48.922;9.444;2023-03-14T07:21:15;2.50;;;1.40;;
7517;SDS011;3800;48.922;9.444;2023-03-14T07:23:42;1.90;;;1.30;;
7517;SDS011;3800;48.922;9.444;2023-03-14T07:26:10;2.60;;;1.10;;
7517;SDS011;3800;48.922;9.444;2023-03-14T07:28:38;4.70;;;1.57;;
7517;SDS011;3800;48.922;9.444;2023-03-14T07:31:05;4.63;;;1.30;;
7517;SDS011;3800;48.922;9.444;2023-03-14T07:33:33;3.43;;;1.30;;
7517;SDS011;3800;48.922;9.444;2023-03-14T07:36:01;3.00;;;1.40;;
7517;SDS011;3800;48.922;9.444;2023-03-14T07:38:29;3.07;;;1.20;;
7517;SDS011;3800;48.922;9.444;2023-03-14T07:41:00;2.87;;;1.27;;
7517;SDS011;3800;48.922;9.444;2023-03-14T07:43:27;3.33;;;1.60;;
7517;SDS011;3800;48.922;9.444;2023-03-14T07:45:54;2.90;;;1.23;;
7517;SDS011;3800;48.922;9.444;2023-03-14T07:48:22;2.17;;;1.27;;
7517;SDS011;3800;48.922;9.444;2023-03-14T07:50:51;2.43;;;1.80;;
7517;SDS011;3800;48.922;9.444;2023-03-14T07:53:18;2.43;;;1.50;;
7517;SDS011;3800;48.922;9.444;2023-03-14T07:55:46;3.20;;;1.10;;
7517;SDS011;3800;48.922;9.444;2023-03-14T07:58:14;1.43;;;1.20;;
7517;SDS011;3800;48.922;9.444;2023-03-14T08:00:42;5.30;;;1.43;;
7517;SDS011;3800;48.922;9.444;2023-03-14T08:03:11;4.07;;;1.30;;
7517;SDS011;3800;48.922;9.444;2023-03-14T08:05:39;3.90;;;1.37;;
7517;SDS011;3800;48.922;9.444;2023-03-14T08:08:07;1.60;;;1.10;;
7517;SDS011;3800;48.922;9.444;2023-03-14T08:10:35;4.87;;;1.20;;
7517;SDS011;3800;48.922;9.444;2023-03-14T08:13:02;2.47;;;1.30;;
7517;SDS011;3800;48.922;9.444;2023-03-14T08:15:30;5.83;;;2.10;;
7517;SDS011;3800;48.922;9.444;2023-03-14T08:17:58;1.87;;;1.17;;
7517;SDS011;3800;48.922;9.444;2023-03-14T08:20:27;1.70;;;1.10;;
7517;SDS011;3800;48.922;9.444;2023-03-14T08:22:55;4.43;;;1.40;;
7517;SDS011;3800;48.922;9.444;2023-03-14T08:25:24;4.47;;;2.07;;
7517;SDS011;3800;48.922;9.444;2023-03-14T08:27:51;2.80;;;1.30;;
7517;SDS011;3800;48.922;9.444;2023-03-14T08:30:20;1.33;;;0.90;;
7517;SDS011;3800;48.922;9.444;2023-03-14T08:32:47;1.47;;;1.10;;
7517;SDS011;3800;48.922;9.444;2023-03-14T08:35:17;1.77;;;1.10;;
7517;SDS011;3800;48.922;9.444;2023-03-14T08:37:46;1.77;;;1.00;;
7517;SDS011;3800;48.922;9.444;2023-03-14T08:40:13;2.00;;;1.20;;
7517;SDS011;3800;48.922;9.444;2023-03-14T08:42:41;2.43;;;1.10;;
7517;SDS011;3800;48.922;9.444;2023-03-14T08:45:11;3.03;;;2.23;;
7517;SDS011;3800;48.922;9.444;2023-03-14T08:47:38;2.00;;;1.10;;
7517;SDS011;3800;48.922;9.444;2023-03-14T08:50:06;3.67;;;1.00;;
7517;SDS011;3800;48.922;9.444;2023-03-14T08:52:33;3.87;;;1.00;;
7517;SDS011;3800;48.922;9.444;2023-03-14T08:55:02;1.33;;;1.00;;
7517;SDS011;3800;48.922;9.444;2023-03-14T08:57:29;2.83;;;1.17;;
7517;SDS011;3800;48.922;9.444;2023-03-14T08:59:57;2.23;;;1.00;;
7517;SDS011;3800;48.922;9.444;2023-03-14T09:02:25;1.00;;;0.80;;
7517;SDS011;3800;48.922;9.444;2023-03-14T09:04:52;0.83;;;0.80;;
7517;SDS011;3800;48.922;9.444;2023-03-14T09:07:20;2.40;;;1.23;;
7517;SDS011;3800;48.922;9.444;2023-03-14T09:09:48;1.10;;;1.00;;
7517;SDS011;3800;48.922;9.444;2023-03-14T09:12:17;3.77;;;1.10;;
7517;SDS011;3800;48.922;9.444;2023-03-14T09:14:44;1.07;;;0.93;;
7517;SDS011;3800;48.922;9.444;2023-03-14T09:17:12;1.43;;;0.90;;
7517;SDS011;3800;48.922;9.444;2023-03-14T09:19:39;2.57;;;0.70;;
7517;SDS011;3800;48.922;9.444;2023-03-14T09:22:08;1.77;;;0.87;;
7517;SDS011;3800;48.922;9.444;2023-03-14T09:24:37;1.97;;;1.03;;
7517;SDS011;3800;48.922;9.444;2023-03-14T09:27:04;0.70;;;0.70;;
7517;SDS011;3800;48.922;9.444;2023-03-14T09:29:33;0.90;;;0.80;;
7517;SDS011;3800;48.922;9.444;2023-03-14T09:32:00;1.37;;;1.00;;
7517;SDS011;3800;48.922;9.444;2023-03-14T09:34:29;1.27;;;1.00;;
7517;SDS011;3800;48.922;9.444;2023-03-14T09:36:58;1.97;;;0.80;;
7517;SDS011;3800;48.922;9.444;2023-03-14T09:39:27;1.40;;;0.80;;
7517;SDS011;3800;48.922;9.444;2023-03-14T09:41:55;1.77;;;0.77;;
7517;SDS011;3800;48.922;9.444;2023-03-14T09:44:25;1.70;;;0.90;;
7517;SDS011;3800;48.922;9.444;2023-03-14T09:46:52;1.23;;;0.80;;
7517;SDS011;3800;48.922;9.444;2023-03-14T09:49:20;2.57;;;1.10;;
7517;SDS011;3800;48.922;9.444;2023-03-14T09:51:50;1.33;;;0.90;;
7517;SDS011;3800;48.922;9.444;2023-03-14T09:54:26;1.10;;;1.00;;
7517;SDS011;3800;48.922;9.444;2023-03-14T09:56:57;2.33;;;1.00;;
7517;SDS011;3800;48.922;9.444;2023-03-14T09:59:27;0.80;;;0.80;;
7517;SDS011;3800;48.922;9.444;2023-03-14T10:01:57;1.90;;;0.90;;
7517;SDS011;3800;48.922;9.444;2023-03-14T10:04:24;3.20;;;0.97;;
7517;SDS011;3800;48.922;9.444;2023-03-14T10:06:52;0.80;;;0.80;;
7517;SDS011;3800;48.922;9.444;2023-03-14T10:09:21;0.90;;;0.80;;
7517;SDS011;3800;48.922;9.444;2023-03-14T10:12:02;1.53;;;0.83;;
7517;SDS011;3800;48.922;9.444;2023-03-14T10:14:32;0.70;;;0.70;;
7517;SDS011;3800;48.922;9.444;2023-03-14T10:17:07;0.70;;;0.70;;
7517;SDS011;3800;48.922;9.444;2023-03-14T10:19:34;0.90;;;0.80;;
7517;SDS011;3800;48.922;9.444;2023-03-14T10:22:02;1.13;;;0.90;;
7517;SDS011;3800;48.922;9.444;2023-03-14T10:24:30;0.93;;;0.80;;
7517;SDS011;3800;48.922;9.444;2023-03-14T10:26:59;1.20;;;1.07;;
7517;SDS011;3800;48.922;9.444;2023-03-14T10:29:25;3.03;;;1.00;;
7517;SDS011;3800;48.922;9.444;2023-03-14T10:31:55;1.53;;;0.90;;
7517;SDS011;3800;48.922;9.444;2023-03-14T10:34:25;0.87;;;0.60;;
7517;SDS011;3800;48.922;9.444;2023-03-14T10:36:53;0.90;;;0.80;;
7517;SDS011;3800;48.922;9.444;2023-03-14T10:39:23;2.70;;;0.80;;
7517;SDS011;3800;48.922;9.444;2023-03-14T10:41:50;2.03;;;0.80;;
7517;SDS011;3800;48.922;9.444;2023-03-14T10:44:21;1.23;;;1.00;;
7517;SDS011;3800;48.922;9.444;2023-03-14T10:47:01;1.60;;;0.90;;
7517;SDS011;3800;48.922;9.444;2023-03-14T10:49:31;1.57;;;0.80;;
7517;SDS011;3800;48.922;9.444;2023-03-14T10:52:34;1.77;;;1.00;;
7517;SDS011;3800;48.922;9.444;2023-03-14T10:54:47;1.20;;;1.00;;
7517;SDS011;3800;48.922;9.444;2023-03-14T10:57:15;2.07;;;0.90;;
7517;SDS011;3800;48.922;9.444;2023-03-14T10:59:42;1.53;;;0.90;;
7517;SDS011;3800;48.922;9.444;2023-03-14T11:02:20;1.63;;;0.80;;
7517;SDS011;3800;48.922;9.444;2023-03-14T11:05:04;2.13;;;0.93;;
7517;SDS011;3800;48.922;9.444;2023-03-14T11:07:49;1.20;;;0.80;;
7517;SDS011;3800;48.922;9.444;2023-03-14T11:10:19;1.47;;;1.00;;
7517;SDS011;3800;48.922;9.444;2023-03-14T11:12:52;1.37;;;0.80;;
7517;SDS011;3800;48.922;9.444;2023-03-14T11:15:20;2.60;;;0.77;;
7517;SDS011;3800;48.922;9.444;2023-03-14T11:20:42;2.17;;;0.70;;
7517;SDS011;3800;48.922;9.444;2023-03-14T11:23:17;0.57;;;0.57;;
7517;SDS011;3800;48.922;9.444;2023-03-14T11:25:47;0.70;;;0.70;;
7517;SDS011;3800;48.922;9.444;2023-03-14T11:28:36;0.60;;;0.60;;
7517;SDS011;3800;48.922;9.444;2023-03-14T11:31:04;1.53;;;0.80;;
7517;SDS011;3800;48.922;9.444;2023-03-14T11:33:38;1.00;;;0.90;;
7517;SDS011;3800;48.922;9.444;2023-03-14T11:36:07;0.80;;;0.80;;
7517;SDS011;3800;48.922;9.444;2023-03-14T11:38:36;0.80;;;0.80;;
7517;SDS011;3800;48.922;9.444;2023-03-14T11:41:04;1.67;;;0.77;;
7517;SDS011;3800;48.922;9.444;2023-03-14T11:43:33;1.23;;;0.70;;
7517;SDS011;3800;48.922;9.444;2023-03-14T11:46:03;1.53;;;0.80;;
7517;SDS011;3800;48.922;9.444;2023-03-14T11:51:21;1.10;;;0.80;;
7517;SDS011;3800;48.922;9.444;2023-03-14T11:53:50;0.70;;;0.70;;
7517;SDS011;3800;48.922;9.444;2023-03-14T11:56:24;1.00;;;0.90;;
7517;SDS011;3800;48.922;9.444;2023-03-14T11:58:52;1.10;;;0.80;;
7517;SDS011;3800;48.922;9.444;2023-03-14T12:01:18;0.90;;;0.80;;
7517;SDS011;3800;48.922;9.444;2023-03-14T12:03:57;0.80;;;0.70;;
7517;SDS011;3800;48.922;9.444;2023-03-14T12:06:32;2.33;;;0.80;;
7517;SDS011;3800;48.922;9.444;2023-03-14T12:08:58;0.83;;;0.83;;
7517;SDS011;3800;48.922;9.444;2023-03-14T12:14:17;0.70;;;0.70;;
7517;SDS011;3800;48.922;9.444;2023-03-14T12:16:46;0.80;;;0.70;;
7517;SDS011;3800;48.922;9.444;2023-03-14T12:19:21;0.90;;;0.80;;
7517;SDS011;3800;48.922;9.444;2023-03-14T12:21:58;0.80;;;0.80;;
7517;SDS011;3800;48.922;9.444;2023-03-14T12:24:44;0.90;;;0.70;;
7517;SDS011;3800;48.922;9.444;2023-03-14T12:27:09;0.73;;;0.73;;
7517;SDS011;3800;48.922;9.444;2023-03-14T12:29:59;1.20;;;0.80;;
7517;SDS011;3800;48.922;9.444;2023-03-14T12:32:25;0.70;;;0.70;;
7517;SDS011;3800;48.922;9.444;2023-03-14T12:34:53;0.80;;;0.80;;
7517;SDS011;3800;48.922;9.444;2023-03-14T12:37:26;0.70;;;0.70;;
7517;SDS011;3800;48.922;9.444;2023-03-14T12:40:13;1.40;;;0.70;;
7517;SDS011;3800;48.922;9.444;2023-03-14T12:45:25;0.70;;;0.70;;
7517;SDS011;3800;48.922;9.444;2023-03-14T12:47:54;0.80;;;0.80;;
7517;SDS011;3800;48.922;9.444;2023-03-14T12:50:25;1.37;;;0.80;;
7517;SDS011;3800;48.922;9.444;2023-03-14T12:53:03;1.10;;;1.00;;
7517;SDS011;3800;48.922;9.444;2023-03-14T12:55:53;1.30;;;1.20;;
7517;SDS011;3800;48.922;9.444;2023-03-14T13:00:59;2.03;;;1.17;;
7517;SDS011;3800;48.922;9.444;2023-03-14T13:03:36;2.60;;;1.40;;
7517;SDS011;3800;48.922;9.444;2023-03-14T13:06:09;1.47;;;1.20;;
7517;SDS011;3800;48.922;9.444;2023-03-14T13:08:39;4.07;;;1.50;;
7517;SDS011;3800;48.922;9.444;2023-03-14T13:11:09;2.43;;;1.40;;
7517;SDS011;3800;48.922;9.444;2023-03-14T13:13:41;2.27;;;1.30;;
7517;SDS011;3800;48.922;9.444;2023-03-14T13:16:18;1.70;;;1.30;;
7517;SDS011;3800;48.922;9.444;2023-03-14T13:18:45;2.93;;;1.30;;
7517;SDS011;3800;48.922;9.444;2023-03-14T13:21:13;2.53;;;1.40;;
7517;SDS011;3800;48.922;9.444;2023-03-14T13:26:32;2.13;;;1.23;;
7517;SDS011;3800;48.922;9.444;2023-03-14T13:28:59;1.73;;;1.20;;
7517;SDS011;3800;48.922;9.444;2023-03-14T13:31:28;2.33;;;1.30;;
7517;SDS011;3800;48.922;9.444;2023-03-14T13:33:57;2.53;;;1.20;;
7517;SDS011;3800;48.922;9.444;2023-03-14T13:36:25;2.47;;;1.13;;
7517;SDS011;3800;48.922;9.444;2023-03-14T13:38:57;2.17;;;1.10;;
7517;SDS011;3800;48.922;9.444;2023-03-14T13:41:24;1.40;;;1.10;;
7517;SDS011;3800;48.922;9.444;2023-03-14T13:43:52;2.90;;;1.10;;
7517;SDS011;3800;48.922;9.444;2023-03-14T13:46:23;1.63;;;1.10;;
7517;SDS011;3800;48.922;9.444;2023-03-14T13:48:53;4.60;;;1.30;;
7517;SDS011;3800;48.922;9.444;2023-03-14T13:51:22;2.60;;;1.13;;
7517;SDS011;3800;48.922;9.444;2023-03-14T13:53:51;2.37;;;1.27;;
7517;SDS011;3800;48.922;9.444;2023-03-14T13:56:19;2.37;;;1.20;;
7517;SDS011;3800;48.922;9.444;2023-03-14T13:58:49;3.73;;;1.40;;
7517;SDS011;3800;48.922;9.444;2023-03-14T14:01:18;1.63;;;1.10;;
7517;SDS011;3800;48.922;9.444;2023-03-14T14:03:48;5.57;;;1.17;;
7517;SDS011;3800;48.922;9.444;2023-03-14T14:06:19;3.30;;;1.10;;
7517;SDS011;3800;48.922;9.444;2023-03-14T14:08:46;1.50;;;0.90;;
7517;SDS011;3800;48.922;9.444;2023-03-14T14:11:19;1.30;;;1.10;;
7517;SDS011;3800;48.922;9.444;2023-03-14T14:13:43;4.23;;;1.10;;
7517;SDS011;3800;48.922;9.444;2023-03-14T14:16:11;1.63;;;1.00;;
7517;SDS011;3800;48.922;9.444;2023-03-14T14:18:39;2.87;;;1.10;;
7517;SDS011;3800;48.922;9.444;2023-03-14T14:21:08;2.17;;;1.27;;
7517;SDS011;3800;48.922;9.444;2023-03-14T14:23:35;2.53;;;1.10;;
7517;SDS011;3800;48.922;9.444;2023-03-14T14:26:03;2.30;;;1.00;;
7517;SDS011;3800;48.922;9.444;2023-03-14T14:28:32;2.97;;;1.00;;
7517;SDS011;3800;48.922;9.444;2023-03-14T14:31:01;5.20;;;1.30;;
7517;SDS011;3800;48.922;9.444;2023-03-14T14:33:28;1.20;;;0.90;;
7517;SDS011;3800;48.922;9.444;2023-03-14T14:35:58;1.70;;;1.10;;
7517;SDS011;3800;48.922;9.444;2023-03-14T14:38:26;1.13;;;1.03;;
7517;SDS011;3800;48.922;9.444;2023-03-14T14:40:54;1.70;;;1.20;;
7517;SDS011;3800;48.922;9.444;2023-03-14T14:43:22;1.43;;;1.10;;
7517;SDS011;3800;48.922;9.444;2023-03-14T14:45:50;2.17;;;1.17;;
7517;SDS011;3800;48.922;9.444;2023-03-14T14:48:23;2.40;;;1.40;;
7517;SDS011;3800;48.922;9.444;2023-03-14T14:50:54;1.13;;;1.03;;
7517;SDS011;3800;48.922;9.444;2023-03-14T14:53:22;3.93;;;1.33;;
7517;SDS011;3800;48.922;9.444;2023-03-14T14:55:51;1.47;;;1.20;;
7517;SDS011;3800;48.922;9.444;2023-03-14T14:58:20;3.90;;;1.23;;
7517;SDS011;3800;48.922;9.444;2023-03-14T15:00:52;4.17;;;1.40;;
7517;SDS011;3800;48.922;9.444;2023-03-14T15:03:18;1.57;;;1.27;;
7517;SDS011;3800;48.922;9.444;2023-03-14T15:05:46;1.73;;;1.00;;
7517;SDS011;3800;48.922;9.444;2023-03-14T15:08:14;1.97;;;1.27;;
7517;SDS011;3800;48.922;9.444;2023-03-14T15:10:42;2.33;;;1.33;;
7517;SDS011;3800;48.922;9.444;2023-03-14T15:13:09;2.60;;;1.10;;
7517;SDS011;3800;48.922;9.444;2023-03-14T15:15:37;2.33;;;1.50;;
7517;SDS011;3800;48.922;9.444;2023-03-14T15:18:13;2.47;;;1.27;;
7517;SDS011;3800;48.922;9.444;2023-03-14T15:20:41;4.47;;;1.30;;
7517;SDS011;3800;48.922;9.444;2023-03-14T15:23:10;2.33;;;1.37;;
7517;SDS011;3800;48.922;9.444;2023-03-14T15:25:36;2.07;;;1.20;;
7517;SDS011;3800;48.922;9.444;2023-03-14T15:28:10;4.17;;;1.20;;
7517;SDS011;3800;48.922;9.444;2023-03-14T15:30:36;4.87;;;1.47;;
7517;SDS011;3800;48.922;9.444;2023-03-14T15:33:04;2.50;;;1.20;;
7517;SDS011;3800;48.922;9.444;2023-03-14T15:35:34;2.77;;;1.33;;
7517;SDS011;3800;48.922;9.444;2023-03-14T15:38:01;2.47;;;1.30;;
7517;SDS011;3800;48.922;9.444;2023-03-14T15:40:29;4.60;;;1.30;;
7517;SDS011;3800;48.922;9.444;2023-03-14T15:42:56;4.13;;;1.63;;